createdAt,value
2018-03-21T00:01:27.979Z,6.80
2018-03-21T00:04:37.877Z,5.82
2018-03-21T00:07:47.874Z,6.28
2018-03-21T00:10:59.144Z,4.95
2018-03-21T00:14:09.423Z,5.90
2018-03-21T00:17:19.152Z,6.25
2018-03-21T00:20:29.058Z,5.90
2018-03-21T00:23:39.962Z,5.70
2018-03-21T00:26:50.092Z,5.43
2018-03-21T00:30:00.351Z,5.25
2018-03-21T00:33:10.407Z,5.47
2018-03-21T00:36:20.688Z,6.57
2018-03-21T00:39:31.322Z,5.30
2018-03-21T00:42:41.312Z,6.47
2018-03-21T00:45:51.207Z,6.65
2018-03-21T00:49:01.444Z,5.20
2018-03-21T00:52:11.764Z,6.43
2018-03-21T00:55:22.137Z,5.53
2018-03-21T00:58:32.276Z,4.30
2018-03-21T01:01:42.478Z,6.00
2018-03-21T01:04:52.888Z,5.45
2018-03-21T01:08:03.550Z,6.68
2018-03-21T01:11:13.306Z,4.28
2018-03-21T01:14:23.271Z,6.55
2018-03-21T01:17:33.075Z,4.15
2018-03-21T01:20:43.488Z,6.72
2018-03-21T01:23:53.597Z,5.90
2018-03-21T01:27:03.713Z,6.47
2018-03-21T01:30:15.019Z,7.55
2018-03-21T01:33:25.527Z,8.52
2018-03-21T01:36:35.166Z,5.90
2018-03-21T01:39:45.071Z,4.65
2018-03-21T01:42:54.696Z,4.35
2018-03-21T01:46:04.698Z,5.07
2018-03-21T01:49:14.936Z,6.90
2018-03-21T01:52:25.625Z,4.40
2018-03-21T01:55:36.005Z,7.12
2018-03-21T01:58:46.068Z,7.05
2018-03-21T02:01:56.093Z,5.50
2018-03-21T02:05:06.719Z,5.43
2018-03-21T02:08:16.826Z,7.95
2018-03-21T02:11:27.861Z,5.85
2018-03-21T02:14:38.378Z,6.40
2018-03-21T02:17:48.640Z,5.72
2018-03-21T02:20:58.615Z,6.20
2018-03-21T02:24:09.436Z,7.45
2018-03-21T02:27:19.615Z,9.18
2018-03-21T02:30:31.078Z,5.65
2018-03-21T02:33:41.034Z,6.37
2018-03-21T02:36:51.166Z,6.80
2018-03-21T02:40:01.294Z,6.72
2018-03-21T02:43:11.168Z,6.35
2018-03-21T02:46:21.442Z,7.95
2018-03-21T02:49:31.314Z,8.25
2018-03-21T02:52:41.861Z,6.40
2018-03-21T02:55:51.676Z,5.72
2018-03-21T02:59:02.729Z,6.30
2018-03-21T03:02:12.384Z,7.60
2018-03-21T03:05:22.482Z,6.43
2018-03-21T03:08:32.572Z,7.10
2018-03-21T03:11:43.003Z,7.78
2018-03-21T03:14:53.639Z,6.47
2018-03-21T03:18:03.667Z,8.65
2018-03-21T03:21:13.937Z,6.85
2018-03-21T03:24:24.173Z,7.50
2018-03-21T03:27:35.524Z,5.35
2018-03-21T03:30:46.542Z,6.20
2018-03-21T03:33:56.877Z,6.85
2018-03-21T03:37:06.912Z,5.93
2018-03-21T03:40:17.197Z,6.55
2018-03-21T03:43:27.314Z,7.28
2018-03-21T03:46:37.932Z,7.30
2018-03-21T03:49:48.524Z,6.07
2018-03-21T03:52:58.748Z,6.40
2018-03-21T03:56:09.165Z,6.70
2018-03-21T03:59:20.444Z,5.65
2018-03-21T04:02:30.872Z,7.25
2018-03-21T04:05:41.005Z,11.88
2018-03-21T04:08:51.692Z,6.22
2018-03-21T04:12:02.040Z,6.40
2018-03-21T04:15:12.681Z,8.55
2018-03-21T04:18:22.904Z,7.47
2018-03-21T04:21:33.163Z,6.78
2018-03-21T04:24:43.269Z,6.03
2018-03-21T04:27:53.569Z,8.32
2018-03-21T04:31:04.135Z,7.40
2018-03-21T04:34:15.469Z,7.15
2018-03-21T04:37:25.855Z,5.78
2018-03-21T04:40:36.496Z,6.87
2018-03-21T04:43:46.550Z,7.20
2018-03-21T04:46:56.891Z,7.22
2018-03-21T04:50:07.260Z,7.90
2018-03-21T04:53:18.454Z,8.20
2018-03-21T04:56:29.046Z,6.65
2018-03-21T04:59:38.898Z,11.27
2018-03-21T05:02:49.430Z,7.85
2018-03-21T05:05:59.951Z,6.62
2018-03-21T05:09:10.151Z,9.20
2018-03-21T05:12:20.072Z,7.90
2018-03-21T05:15:29.887Z,9.43
2018-03-21T05:18:40.565Z,9.23
2018-03-21T05:21:50.724Z,9.48
2018-03-21T05:25:03.244Z,8.07
2018-03-21T05:28:13.306Z,9.02
2018-03-21T05:31:23.237Z,8.85
2018-03-21T05:34:33.489Z,9.20
2018-03-21T05:37:43.854Z,9.27
2018-03-21T05:40:54.271Z,10.65
2018-03-21T05:44:04.619Z,9.95
2018-03-21T05:47:15.260Z,9.80
2018-03-21T05:50:25.193Z,7.60
2018-03-21T05:53:35.141Z,10.23
2018-03-21T05:56:46.158Z,33.55
2018-03-21T05:59:57.084Z,11.00
2018-03-21T06:03:07.124Z,7.60
2018-03-21T06:06:17.185Z,9.00
2018-03-21T06:09:28.444Z,11.20
2018-03-21T06:12:38.181Z,11.85
2018-03-21T06:15:48.300Z,11.05
2018-03-21T06:18:59.046Z,8.55
2018-03-21T06:22:09.160Z,10.70
2018-03-21T06:25:19.856Z,9.60
2018-03-21T06:28:30.059Z,10.35
2018-03-21T06:31:40.488Z,10.23
2018-03-21T06:34:51.271Z,9.57
2018-03-21T06:38:01.271Z,10.40
2018-03-21T06:41:12.222Z,10.85
2018-03-21T06:44:22.055Z,13.60
2018-03-21T06:47:32.470Z,11.73
2018-03-21T06:50:43.041Z,12.02
2018-03-21T06:53:53.126Z,9.82
2018-03-21T06:57:03.194Z,8.73
2018-03-21T07:00:13.160Z,10.52
2018-03-21T07:03:23.622Z,10.80
2018-03-21T07:06:33.589Z,4.82
2018-03-21T07:09:43.464Z,11.88
2018-03-21T07:12:54.378Z,9.70
2018-03-21T07:19:55.006Z,17.90
2018-03-21T07:23:06.559Z,13.77
2018-03-21T07:26:17.258Z,11.70
2018-03-21T07:29:27.567Z,9.93
2018-03-21T07:32:37.725Z,15.70
2018-03-21T07:35:47.483Z,11.25
2018-03-21T07:38:57.698Z,11.00
2018-03-21T07:42:08.283Z,7.10
2018-03-21T07:45:18.200Z,9.70
2018-03-21T07:48:28.479Z,14.75
2018-03-21T07:51:38.700Z,11.40
2018-03-21T07:54:48.738Z,15.82
2018-03-21T07:57:59.933Z,15.55
2018-03-21T08:01:09.530Z,10.90
2018-03-21T08:04:19.496Z,11.40
2018-03-21T08:07:30.012Z,14.07
2018-03-21T08:10:40.357Z,15.68
2018-03-21T08:13:50.356Z,11.48
2018-03-21T08:17:00.270Z,12.23
2018-03-21T08:20:10.368Z,14.50
2018-03-21T08:23:20.946Z,10.05
2018-03-21T08:26:31.406Z,13.38
2018-03-21T08:29:41.302Z,9.70
2018-03-21T08:32:50.959Z,11.68
2018-03-21T08:36:01.475Z,13.32
2018-03-21T08:39:12.184Z,14.63
2018-03-21T08:42:22.456Z,11.82
2018-03-21T08:45:32.412Z,7.93
2018-03-21T08:48:42.417Z,15.07
2018-03-21T08:51:52.552Z,15.05
2018-03-21T08:55:02.296Z,13.20
2018-03-21T08:58:12.035Z,12.27
2018-03-21T09:01:21.857Z,14.10
2018-03-21T09:04:32.026Z,17.50
2018-03-21T09:07:42.640Z,9.35
2018-03-21T09:10:52.457Z,6.70
2018-03-21T09:14:02.233Z,10.80
2018-03-21T09:17:12.314Z,10.07
2018-03-21T09:20:23.199Z,9.05
2018-03-21T09:23:33.288Z,10.57
2018-03-21T09:26:44.126Z,9.77
2018-03-21T09:29:54.437Z,11.65
2018-03-21T09:33:04.164Z,6.80
2018-03-21T09:36:14.527Z,14.40
2018-03-21T09:39:24.884Z,9.40
2018-03-21T09:42:35.429Z,10.88
2018-03-21T09:45:45.724Z,10.10
2018-03-21T09:48:56.401Z,11.07
2018-03-21T09:52:06.209Z,7.70
2018-03-21T09:55:16.266Z,11.50
2018-03-21T09:58:26.985Z,7.82
2018-03-21T10:01:36.748Z,9.45
2018-03-21T10:04:47.698Z,8.88
2018-03-21T10:07:57.786Z,8.27
2018-03-21T10:11:07.590Z,8.68
2018-03-21T10:14:17.716Z,7.80
2018-03-21T10:17:28.175Z,8.48
2018-03-21T10:20:38.186Z,8.95
2018-03-21T10:23:48.294Z,6.05
2018-03-21T10:26:58.728Z,8.30
2018-03-21T10:30:08.949Z,9.23
2018-03-21T10:33:19.608Z,8.32
2018-03-21T10:36:30.280Z,6.82
2018-03-21T10:39:40.488Z,8.40
2018-03-21T10:42:50.427Z,8.15
2018-03-21T10:46:01.275Z,8.30
2018-03-21T10:49:11.610Z,6.25
2018-03-21T10:52:21.352Z,7.53
2018-03-21T10:55:31.310Z,6.55
2018-03-21T10:58:41.166Z,5.78
2018-03-21T11:01:56.555Z,8.90
2018-03-21T11:05:06.660Z,8.40
2018-03-21T11:08:16.963Z,8.02
2018-03-21T11:11:26.467Z,6.37
2018-03-21T11:14:36.838Z,8.27
2018-03-21T11:17:46.517Z,7.30
2018-03-21T11:20:56.525Z,8.73
2018-03-21T11:24:06.579Z,7.37
2018-03-21T11:27:16.439Z,8.98
2018-03-21T11:30:27.264Z,7.65
2018-03-21T11:33:37.267Z,7.07
2018-03-21T11:36:47.168Z,9.07
2018-03-21T11:39:57.088Z,8.30
2018-03-21T11:43:07.809Z,9.52
2018-03-21T11:46:18.236Z,8.55
2018-03-21T11:49:28.247Z,8.63
2018-03-21T11:52:37.988Z,9.52
2018-03-21T11:55:48.927Z,8.73
2018-03-21T11:58:58.978Z,8.93
2018-03-21T12:02:08.771Z,8.07
2018-03-21T12:05:19.363Z,7.40
2018-03-21T12:08:29.214Z,10.25
2018-03-21T12:11:39.160Z,8.23
2018-03-21T12:14:49.084Z,8.60
2018-03-21T12:17:58.861Z,7.37
2018-03-21T12:21:09.088Z,9.27
2018-03-21T12:24:19.064Z,8.68
2018-03-21T12:27:29.134Z,7.78
2018-03-21T12:30:40.407Z,7.07
2018-03-21T12:33:50.796Z,7.53
2018-03-21T12:37:00.916Z,10.13
2018-03-21T12:40:10.890Z,9.25
2018-03-21T12:43:20.876Z,6.90
2018-03-21T12:46:31.494Z,8.40
2018-03-21T12:49:41.807Z,9.35
2018-03-21T12:52:51.646Z,9.55
2018-03-21T12:56:01.566Z,7.60
2018-03-21T12:59:12.572Z,8.05
2018-03-21T13:02:23.248Z,7.95
2018-03-21T13:05:33.223Z,8.32
2018-03-21T13:08:43.154Z,10.10
2018-03-21T13:11:52.972Z,8.20
2018-03-21T13:15:02.862Z,8.55
2018-03-21T13:18:13.582Z,9.25
2018-03-21T13:21:24.923Z,8.43
2018-03-21T13:24:35.066Z,8.95
2018-03-21T13:27:45.091Z,9.32
2018-03-21T13:30:55.300Z,9.38
2018-03-21T13:34:05.512Z,8.02
2018-03-21T13:37:15.516Z,10.65
2018-03-21T13:40:25.427Z,9.00
2018-03-21T13:43:35.290Z,8.95
2018-03-21T13:46:45.035Z,9.95
2018-03-21T13:49:55.016Z,10.15
2018-03-21T13:53:06.260Z,8.00
2018-03-21T13:56:16.635Z,9.18
2018-03-21T13:59:26.746Z,8.98
2018-03-21T14:02:36.758Z,9.32
2018-03-21T14:05:46.807Z,12.25
2018-03-21T14:08:57.563Z,10.70
2018-03-21T14:12:08.591Z,7.80
2018-03-21T14:15:18.705Z,8.40
2018-03-21T14:18:28.445Z,7.53
2018-03-21T14:21:39.013Z,7.55
2018-03-21T14:24:49.823Z,9.15
2018-03-21T14:27:59.954Z,7.25
2018-03-21T14:31:09.857Z,8.32
2018-03-21T14:34:19.798Z,8.23
2018-03-21T14:37:29.597Z,7.47
2018-03-21T14:40:40.280Z,8.93
2018-03-21T14:43:50.704Z,7.82
2018-03-21T14:47:00.604Z,7.07
2018-03-21T14:50:10.638Z,7.55
2018-03-21T14:53:20.666Z,8.57
2018-03-21T14:56:30.535Z,7.20
2018-03-21T14:59:40.410Z,7.85
2018-03-21T15:02:50.447Z,7.72
2018-03-21T15:06:00.479Z,10.35
2018-03-21T15:09:11.264Z,8.63
2018-03-21T15:12:21.708Z,8.18
2018-03-21T15:15:31.548Z,8.25
2018-03-21T15:18:41.562Z,8.27
2018-03-21T15:21:51.463Z,8.57
2018-03-21T15:25:01.665Z,8.05
2018-03-21T15:28:11.380Z,7.90
2018-03-21T15:31:22.098Z,8.32
2018-03-21T15:34:32.183Z,8.32
2018-03-21T15:37:42.789Z,8.68
2018-03-21T15:40:53.101Z,8.95
2018-03-21T15:44:02.896Z,8.13
2018-03-21T15:47:13.084Z,9.32
2018-03-21T15:50:23.133Z,9.10
2018-03-21T15:53:33.943Z,9.85
2018-03-21T15:56:43.884Z,10.10
2018-03-21T15:59:54.588Z,8.52
2018-03-21T16:03:06.016Z,9.05
2018-03-21T16:06:16.679Z,9.40
2018-03-21T16:09:27.872Z,11.85
2018-03-21T16:12:37.840Z,9.32
2018-03-21T16:15:48.056Z,9.32
2018-03-21T16:18:57.939Z,9.75
2018-03-21T16:22:08.617Z,9.68
2018-03-21T16:25:19.545Z,10.15
2018-03-21T16:28:30.379Z,8.80
2018-03-21T16:31:40.908Z,9.68
2018-03-21T16:34:51.535Z,8.93
2018-03-21T16:38:01.747Z,9.35
2018-03-21T16:41:12.596Z,9.25
2018-03-21T16:44:22.812Z,9.52
2018-03-21T16:47:33.021Z,9.70
2018-03-21T16:50:42.801Z,10.70
2018-03-21T16:53:52.708Z,9.95
2018-03-21T16:57:02.756Z,8.73
2018-03-21T17:00:12.541Z,9.65
2018-03-21T17:03:22.354Z,11.12
2018-03-21T17:06:32.432Z,10.32
2018-03-21T17:09:42.276Z,9.80
2018-03-21T17:12:52.412Z,8.55
2018-03-21T17:16:03.161Z,10.25
2018-03-21T17:19:12.993Z,9.18
2018-03-21T17:22:22.857Z,9.20
2018-03-21T17:25:32.820Z,10.30
2018-03-21T17:28:42.952Z,11.98
2018-03-21T17:31:53.388Z,14.55
2018-03-21T17:35:03.640Z,13.88
2018-03-21T17:38:13.895Z,14.70
2018-03-21T17:41:23.806Z,14.80
2018-03-21T17:44:34.061Z,11.63
2018-03-21T17:47:44.612Z,10.13
2018-03-21T17:50:54.987Z,10.90
2018-03-21T17:54:04.784Z,11.07
2018-03-21T17:57:15.183Z,11.77
2018-03-21T18:00:25.360Z,11.50
2018-03-21T18:03:35.323Z,11.10
2018-03-21T18:06:45.511Z,13.07
2018-03-21T18:09:55.385Z,11.77
2018-03-21T18:13:05.246Z,12.23
2018-03-21T18:16:15.640Z,12.70
2018-03-21T18:19:25.681Z,12.35
2018-03-21T18:22:36.349Z,12.50
2018-03-21T18:25:46.190Z,10.52
2018-03-21T18:28:56.351Z,12.37
2018-03-21T18:32:06.819Z,12.27
2018-03-21T18:35:17.755Z,17.02
2018-03-21T18:38:28.639Z,17.90
2018-03-21T18:41:39.209Z,18.30
2018-03-21T18:44:49.408Z,14.82
2018-03-21T18:47:59.557Z,11.35
2018-03-21T18:51:12.393Z,13.65
2018-03-21T18:54:22.607Z,12.15
2018-03-21T18:57:33.131Z,10.45
2018-03-21T19:00:43.829Z,12.00
2018-03-21T19:03:53.942Z,12.07
2018-03-21T19:07:04.088Z,11.80
2018-03-21T19:10:14.326Z,11.05
2018-03-21T19:13:24.218Z,11.45
2018-03-21T19:16:34.199Z,10.68
2018-03-21T19:19:44.315Z,11.60
2018-03-21T19:22:54.371Z,11.02
2018-03-21T19:26:04.579Z,10.32
2018-03-21T19:29:14.840Z,10.50
2018-03-21T19:32:25.038Z,10.98
2018-03-21T19:35:35.065Z,10.27
2018-03-21T19:38:45.757Z,11.50
2018-03-21T19:41:56.275Z,12.27
2018-03-21T19:45:05.926Z,10.93
2018-03-21T19:48:16.376Z,10.73
2018-03-21T19:51:26.216Z,11.35
2018-03-21T19:54:36.620Z,12.10
2018-03-21T19:57:46.774Z,9.85
2018-03-21T20:00:57.749Z,10.65
2018-03-21T20:04:09.221Z,11.32
2018-03-21T20:07:19.281Z,11.35
2018-03-21T20:10:29.743Z,9.68
2018-03-21T20:13:39.744Z,11.30
2018-03-21T20:16:49.561Z,11.50
2018-03-21T20:20:00.098Z,12.57
2018-03-21T20:23:10.231Z,13.07
2018-03-21T20:26:20.146Z,10.82
2018-03-21T20:29:30.347Z,11.90
2018-03-21T20:32:41.466Z,10.45
2018-03-21T20:35:51.924Z,12.80
2018-03-21T20:39:01.786Z,12.55
2018-03-21T20:42:12.678Z,12.88
2018-03-21T20:45:22.513Z,11.35
2018-03-21T20:48:32.389Z,12.02
2018-03-21T20:51:42.751Z,12.35
2018-03-21T20:54:52.815Z,12.27
2018-03-21T20:58:03.136Z,11.40
2018-03-21T21:01:13.647Z,11.10
2018-03-21T21:04:23.760Z,11.23
2018-03-21T21:07:34.045Z,11.20
2018-03-21T21:10:44.200Z,11.05
2018-03-21T21:13:54.196Z,10.65
2018-03-21T21:17:04.297Z,12.07
2018-03-21T21:20:14.474Z,9.30
2018-03-21T21:23:24.894Z,11.52
2018-03-21T21:26:35.017Z,11.10
2018-03-21T21:29:45.431Z,12.45
2018-03-21T21:32:55.804Z,11.50
2018-03-21T21:36:05.852Z,10.98
2018-03-21T21:39:15.951Z,11.50
2018-03-21T21:42:26.845Z,10.23
2018-03-21T21:45:37.421Z,12.63
2018-03-21T21:48:47.726Z,13.88
2018-03-21T21:51:58.306Z,12.77
2018-03-21T21:55:08.341Z,12.52
2018-03-21T21:58:18.353Z,10.48
2018-03-21T22:01:28.305Z,12.65
2018-03-21T22:04:38.154Z,12.00
2018-03-21T22:07:48.258Z,11.43
2018-03-21T22:10:58.327Z,10.00
2018-03-21T22:14:08.387Z,10.05
2018-03-21T22:17:18.298Z,9.80
2018-03-21T22:20:28.560Z,9.82
2018-03-21T22:23:38.546Z,10.50
2018-03-21T22:26:48.745Z,9.85
2018-03-21T22:29:59.596Z,11.95
2018-03-21T22:33:10.262Z,10.05
2018-03-21T22:36:20.495Z,8.65
2018-03-21T22:39:30.650Z,10.05
2018-03-21T22:42:40.599Z,10.05
2018-03-21T22:45:50.794Z,10.27
2018-03-21T22:49:00.952Z,9.75
2018-03-21T22:52:11.199Z,9.55
2018-03-21T22:55:21.075Z,9.60
2018-03-21T22:58:31.583Z,8.82
2018-03-21T23:01:41.516Z,9.25
2018-03-21T23:04:51.433Z,10.05
2018-03-21T23:08:02.411Z,9.30
2018-03-21T23:11:12.592Z,9.75
2018-03-21T23:14:22.810Z,9.65
2018-03-21T23:17:32.636Z,10.43
2018-03-21T23:20:42.500Z,8.40
2018-03-21T23:23:52.760Z,9.43
2018-03-21T23:27:03.551Z,8.48
2018-03-21T23:30:13.896Z,7.62
2018-03-21T23:33:24.516Z,9.55
2018-03-21T23:36:34.734Z,9.38
2018-03-21T23:39:44.897Z,9.75
2018-03-21T23:42:54.994Z,9.35
2018-03-21T23:46:05.237Z,8.38
2018-03-21T23:49:15.363Z,10.05
2018-03-21T23:52:26.458Z,10.23
2018-03-21T23:55:36.744Z,8.98
2018-03-21T23:58:46.867Z,9.32
